キエフ/ボリースピリ の空港の天気 - METARとTAF

ボリースピリ国際空港(キエフ) ( UKBB / KBP ) - ウクライナ ボリスピリ (キエフ近郊)
飛行場実況気象(Metar)
観測時間10/22 15:00 EEST (10/22 12:00 UTC)
風向・風速南西 5m/s
視程10km以上
天気現象
なし
気温17℃
湿度45%
気圧1018hPa
METARUKBB 221200Z 23005MPS CAVOK 17/05 Q1018 R18L/CLRD// NOSIG
過去の天気等 Google飛行場航空写真 Wunderground天気予報

過去48時間のMETAR

飛行場予報(TAF)
発表時間: 10/22 14:00 EEST (10/22 11:00 UTC)
予報対象時間: 22日15時 EEST ~ 23日15時 EEST
風向・風速南西 6m/s 瞬間風速 12m/s
視程10km以上
全天の8割程度の雲 雲底高度 910m
22日21時 EEST ~ 22日23時 EEST に徐々に
風向・風速南西 3m/s 瞬間風速 8m/s
23日0時 EEST ~ 23日9時 EEST に一時的に
視程2000m
天気現象もや
全天の8割程度の雲 雲底高度 180m
23日9時 EEST ~ 23日11時 EEST に徐々に
風向・風速西南西 5m/s 瞬間風速 10m/s
TAF UKBB 221100Z 2212/2312 23006G12MPS 9999 BKN030
BECMG 2218/2220 22003G08MPS
TEMPO 2221/2306 2000 BR BKN006
BECMG 2306/2308 24005G10MPS